Time;durP1;ratioP1;P1;durP2;ratioP2;P2;SDS_P1;SDS_P2;PMS_P1;PMS_P2;Temp;Humidity;BMP_temperature;BMP_pressure;BME280_temperature;BME280_humidity;BME280_pressure;Samples;Min_cycle;Max_cycle;Signal;HPM_P1;HPM_P2
2022/02/12 00:00:59;;;;;;;4.72;1.75;;;;;;;-1.21;100.00;102718.94;5065325;28;20040;-85
2022/02/12 00:03:26;;;;;;;9.68;3.10;;;;;;;-1.24;100.00;102716.16;5050320;28;20044;-86
2022/02/12 00:05:52;;;;;;;5.68;2.17;;;;;;;-1.26;100.00;102715.16;5048642;28;20120;-85
2022/02/12 00:08:19;;;;;;;12.65;2.90;;;;;;;-1.29;100.00;102716.59;5060914;28;20062;-86
2022/02/12 00:10:45;;;;;;;5.03;2.63;;;;;;;-1.30;100.00;102715.72;5033881;28;20063;-85
2022/02/12 00:13:12;;;;;;;5.05;2.60;;;;;;;-1.31;100.00;102715.59;5049121;28;20157;-86
2022/02/12 00:15:40;;;;;;;5.18;1.42;;;;;;;-1.33;100.00;102716.38;5059703;28;20045;-84
2022/02/12 00:18:07;;;;;;;5.97;1.90;;;;;;;-1.34;100.00;102714.59;5064660;28;20051;-85
2022/02/12 00:20:34;;;;;;;7.03;2.92;;;;;;;-1.36;100.00;102713.56;5067141;28;20044;-86
2022/02/12 00:23:01;;;;;;;6.05;1.30;;;;;;;-1.31;100.00;102710.47;5053841;28;20058;-85
2022/02/12 00:25:27;;;;;;;8.88;2.35;;;;;;;-1.26;100.00;102707.44;5058315;28;20048;-87
2022/02/12 00:27:54;;;;;;;9.40;2.50;;;;;;;-1.22;100.00;102713.72;5062414;28;20044;-85
2022/02/12 00:30:20;;;;;;;7.70;1.67;;;;;;;-1.24;100.00;102717.81;5046986;28;20062;-87
2022/02/12 00:32:47;;;;;;;11.15;4.85;;;;;;;-1.28;100.00;102710.69;5068330;28;20048;-84
2022/02/12 00:35:13;;;;;;;8.07;2.17;;;;;;;-1.23;100.00;102711.91;5043708;28;20124;-86
2022/02/12 00:37:40;;;;;;;5.25;1.95;;;;;;;-1.21;100.00;102705.22;5075490;27;20112;-86
2022/02/12 00:40:07;;;;;;;5.50;2.13;;;;;;;-1.23;100.00;102704.19;5045344;28;20051;-86
2022/02/12 00:42:34;;;;;;;6.13;1.33;;;;;;;-1.30;100.00;102697.72;5061683;28;20040;-85
2022/02/12 00:45:00;;;;;;;9.98;2.08;;;;;;;-1.31;100.00;102692.47;5046075;28;20060;-87
2022/02/12 00:47:28;;;;;;;9.70;2.63;;;;;;;-1.30;100.00;102694.25;5054160;28;20054;-83
2022/02/12 00:49:55;;;;;;;8.05;1.98;;;;;;;-1.28;100.00;102695.25;5068228;28;20036;-87
2022/02/12 00:52:21;;;;;;;8.63;3.60;;;;;;;-1.29;100.00;102693.47;5072534;28;20044;-83
2022/02/12 00:54:48;;;;;;;12.38;2.08;;;;;;;-1.33;100.00;102690.69;5046939;28;20052;-84
2022/02/12 00:57:15;;;;;;;4.03;2.22;;;;;;;-1.37;100.00;102680.97;5078416;28;20047;-87
2022/02/12 00:59:41;;;;;;;5.80;1.80;;;;;;;-1.39;100.00;102682.53;5076393;28;20794;-84
2022/02/12 01:02:08;;;;;;;1.75;1.23;;;;;;;-1.40;100.00;102688.44;5051027;28;20433;-86
2022/02/12 01:04:34;;;;;;;5.05;2.00;;;;;;;-1.40;100.00;102685.88;5071593;28;20047;-84
2022/02/12 01:07:01;;;;;;;4.10;1.77;;;;;;;-1.42;100.00;102689.13;5070360;28;20048;-86
2022/02/12 01:09:27;;;;;;;7.97;1.63;;;;;;;-1.45;100.00;102692.34;5072766;28;20150;-85
2022/02/12 01:11:54;;;;;;;10.93;2.90;;;;;;;-1.50;100.00;102685.97;5066619;28;20043;-84
2022/02/12 01:14:21;;;;;;;9.13;3.15;;;;;;;-1.50;100.00;102688.56;5062249;28;20053;-84
2022/02/12 01:16:47;;;;;;;8.15;2.28;;;;;;;-1.47;100.00;102690.44;5068193;28;20415;-84
2022/02/12 01:19:14;;;;;;;5.85;1.90;;;;;;;-1.48;100.00;102688.69;5067101;28;20043;-86
2022/02/12 01:21:40;;;;;;;7.15;4.10;;;;;;;-1.48;100.00;102686.13;5067729;28;20040;-87
2022/02/12 01:24:07;;;;;;;9.73;2.08;;;;;;;-1.50;100.00;102689.47;5069094;28;20050;-86
2022/02/12 01:26:33;;;;;;;5.40;2.15;;;;;;;-1.52;100.00;102685.88;5063751;28;20039;-83
2022/02/12 01:29:00;;;;;;;11.38;2.75;;;;;;;-1.52;100.00;102682.44;5053831;28;20047;-86
2022/02/12 01:31:27;;;;;;;6.43;2.38;;;;;;;-1.54;100.00;102690.03;5054935;28;20059;-87
2022/02/12 01:33:53;;;;;;;11.73;3.63;;;;;;;-1.53;100.00;102685.78;5048007;28;20051;-87
2022/02/12 01:36:20;;;;;;;9.43;2.97;;;;;;;-1.56;100.00;102683.00;5057431;28;20048;-84
2022/02/12 01:38:46;;;;;;;8.70;3.25;;;;;;;-1.62;100.00;102688.56;5058655;28;20044;-86
2022/02/12 01:41:13;;;;;;;5.03;2.70;;;;;;;-1.67;100.00;102683.09;5071271;28;20048;-85
2022/02/12 01:43:39;;;;;;;12.05;2.70;;;;;;;-1.69;100.00;102684.63;5066495;28;20103;-86
2022/02/12 01:46:06;;;;;;;12.25;2.95;;;;;;;-1.71;100.00;102682.75;5050399;28;20050;-86
2022/02/12 01:48:33;;;;;;;4.90;1.60;;;;;;;-1.74;100.00;102691.09;5050151;28;20039;-84
2022/02/12 01:51:02;;;;;;;5.63;3.20;;;;;;;-1.77;100.00;102689.97;5048823;28;20053;-84
2022/02/12 01:53:28;;;;;;;4.43;2.63;;;;;;;-1.80;100.00;102693.22;5052287;28;20209;-84
2022/02/12 01:55:56;;;;;;;7.43;3.78;;;;;;;-1.83;100.00;102688.75;5054349;28;20401;-83
2022/02/12 01:58:23;;;;;;;6.35;3.38;;;;;;;-1.85;100.00;102694.56;5069388;28;20056;-87
2022/02/12 02:00:49;;;;;;;7.68;2.50;;;;;;;-1.88;100.00;102689.19;5057897;28;20047;-87
2022/02/12 02:03:16;;;;;;;6.32;3.67;;;;;;;-1.96;100.00;102680.91;5050077;28;20113;-87
2022/02/12 02:05:43;;;;;;;7.05;2.38;;;;;;;-1.96;100.00;102678.34;5068973;28;20044;-85
2022/02/12 02:08:09;;;;;;;15.13;3.88;;;;;;;-1.95;100.00;102686.97;5059775;28;20121;-84
2022/02/12 02:10:37;;;;;;;12.10;2.60;;;;;;;-1.94;100.00;102681.94;5085418;28;20506;-85
2022/02/12 02:13:03;;;;;;;4.80;2.35;;;;;;;-1.97;100.00;102678.25;5049392;28;20092;-83
2022/02/12 02:15:30;;;;;;;6.07;2.42;;;;;;;-2.01;100.00;102674.53;5057704;28;20116;-86
2022/02/12 02:17:57;;;;;;;11.88;2.53;;;;;;;-2.03;100.00;102676.13;5062371;28;20056;-84
2022/02/12 02:20:24;;;;;;;5.60;2.50;;;;;;;-2.08;100.00;102668.06;5067866;28;21432;-86
2022/02/12 02:22:55;;;;;;;8.57;2.72;;;;;;;-2.11;100.00;102657.56;5056886;28;20247;-87
2022/02/12 02:25:23;;;;;;;14.63;4.03;;;;;;;-2.13;100.00;102665.94;5044009;28;20051;-86
2022/02/12 02:27:50;;;;;;;6.65;3.10;;;;;;;-2.16;100.00;102662.34;5073218;28;20105;-83
2022/02/12 02:30:21;;;;;;;10.90;2.80;;;;;;;-2.20;100.00;102657.78;5063704;28;20459;-87
2022/02/12 02:32:48;;;;;;;9.35;3.05;;;;;;;-2.19;100.00;102663.78;5059113;28;20637;-85
2022/02/12 02:35:18;;;;;;;9.77;3.28;;;;;;;-2.17;100.00;102664.81;5062524;28;20052;-86
2022/02/12 02:37:45;;;;;;;10.23;2.92;;;;;;;-2.18;100.00;102668.13;5067312;28;20058;-84
2022/02/12 02:40:21;;;;;;;11.35;3.20;;;;;;;-2.20;100.00;102668.03;5080354;27;20040;-83
2022/02/12 02:42:51;;;;;;;7.18;3.33;;;;;;;-2.26;100.00;102666.69;5062298;28;20094;-84
2022/02/12 02:45:18;;;;;;;9.43;3.30;;;;;;;-2.25;100.00;102661.66;5055770;28;20044;-87
2022/02/12 02:47:46;;;;;;;10.02;3.00;;;;;;;-2.23;100.00;102670.38;5060409;28;20048;-86
2022/02/12 02:56:03;;;;;;;13.43;3.22;;;;;;;-2.18;100.00;102661.34;5058081;28;20039;-85
2022/02/12 02:58:46;;;;;;;9.77;3.22;;;;;;;-2.16;100.00;102664.03;5073263;28;20048;-83
2022/02/12 03:01:22;;;;;;;10.05;4.15;;;;;;;-2.18;100.00;102666.50;5053978;28;20131;-86
2022/02/12 03:03:54;;;;;;;13.52;3.47;;;;;;;-2.18;100.00;102671.63;5047743;28;20054;-86
2022/02/12 03:06:25;;;;;;;7.15;2.97;;;;;;;-2.20;100.00;102662.91;5079022;28;20181;-85
2022/02/12 03:08:52;;;;;;;22.80;6.72;;;;;;;-2.21;100.00;102662.78;5057227;28;20139;-83
2022/02/12 03:11:19;;;;;;;11.52;3.60;;;;;;;-2.24;100.00;102666.03;5063751;28;20588;-86
2022/02/12 03:13:48;;;;;;;5.60;3.53;;;;;;;-2.23;100.00;102672.03;5067189;28;20044;-86
2022/02/12 03:16:15;;;;;;;6.70;3.05;;;;;;;-2.24;100.00;102663.44;5065582;28;20149;-84
2022/02/12 03:18:47;;;;;;;8.60;3.28;;;;;;;-2.26;100.00;102677.81;5077963;28;20897;-85
2022/02/12 03:21:14;;;;;;;13.82;3.70;;;;;;;-2.26;100.00;102654.72;5058754;28;20055;-85
2022/02/12 03:23:42;;;;;;;6.57;3.42;;;;;;;-2.27;100.00;102655.50;5063178;28;20055;-84
2022/02/12 03:26:09;;;;;;;9.93;3.28;;;;;;;-2.27;100.00;102650.38;5076060;28;20047;-83
2022/02/12 03:28:36;;;;;;;8.43;3.75;;;;;;;-2.28;100.00;102651.19;5081669;27;21085;-84
2022/02/12 03:31:03;;;;;;;15.15;5.47;;;;;;;-2.28;100.00;102648.63;5061043;28;20055;-86
2022/02/12 03:33:29;;;;;;;7.63;3.85;;;;;;;-2.31;100.00;102634.66;5073489;28;20044;-87
2022/02/12 03:35:56;;;;;;;6.82;4.28;;;;;;;-2.33;100.00;102642.25;5050054;28;20063;-84
2022/02/12 03:38:26;;;;;;;12.73;3.80;;;;;;;-2.33;100.00;102647.38;5078017;28;20037;-87
2022/02/12 03:40:58;;;;;;;13.38;3.63;;;;;;;-2.34;100.00;102643.88;5060115;28;20048;-87
2022/02/12 03:43:25;;;;;;;15.32;4.32;;;;;;;-2.36;100.00;102645.47;5045402;28;20052;-83
2022/02/12 03:45:53;;;;;;;12.02;3.28;;;;;;;-2.36;100.00;102637.78;5051049;28;20060;-84
2022/02/12 03:48:20;;;;;;;17.05;5.55;;;;;;;-2.38;100.00;102638.44;5063725;28;20143;-83
2022/02/12 03:50:46;;;;;;;10.75;3.90;;;;;;;-2.39;100.00;102634.94;5056626;28;20087;-87
2022/02/12 03:53:13;;;;;;;15.48;3.83;;;;;;;-2.39;100.00;102632.38;5075174;28;20036;-83
2022/02/12 03:55:40;;;;;;;8.85;4.07;;;;;;;-2.40;100.00;102643.44;5046746;28;20051;-86
2022/02/12 03:58:14;;;;;;;14.35;4.82;;;;;;;-2.40;100.00;102640.88;5075960;28;20048;-85
2022/02/12 04:00:44;;;;;;;17.13;4.82;;;;;;;-2.39;100.00;102637.50;5033599;28;20324;-86
2022/02/12 04:03:12;;;;;;;10.63;3.67;;;;;;;-2.39;100.00;102632.38;5080025;27;20040;-86
2022/02/12 04:05:41;;;;;;;10.50;4.72;;;;;;;-2.41;100.00;102625.34;5068094;28;20135;-86
2022/02/12 04:08:07;;;;;;;14.48;3.47;;;;;;;-2.43;100.00;102632.94;5050230;28;20052;-83
2022/02/12 04:10:35;;;;;;;12.30;4.47;;;;;;;-2.45;100.00;102625.91;5068910;28;20063;-84
2022/02/12 04:13:02;;;;;;;11.05;3.65;;;;;;;-2.49;100.00;102617.06;5059357;28;20112;-85
2022/02/12 04:15:29;;;;;;;13.13;4.65;;;;;;;-2.49;100.00;102624.75;5064720;28;20044;-86
2022/02/12 04:17:55;;;;;;;9.75;3.13;;;;;;;-2.47;100.00;102624.91;5060293;28;20047;-84
2022/02/12 04:20:24;;;;;;;7.10;3.13;;;;;;;-2.47;100.00;102619.78;5055872;28;20146;-83
2022/02/12 04:22:52;;;;;;;13.90;3.40;;;;;;;-2.51;100.00;102611.84;5068423;28;20075;-85
2022/02/12 04:25:21;;;;;;;10.00;3.33;;;;;;;-2.51;100.00;102605.81;5055568;28;20056;-84
2022/02/12 04:27:49;;;;;;;6.05;2.85;;;;;;;-2.52;100.00;102610.03;5045415;28;20048;-84
2022/02/12 04:30:16;;;;;;;10.45;2.85;;;;;;;-2.50;100.00;102611.06;5058346;28;20048;-86
2022/02/12 04:32:44;;;;;;;13.60;3.40;;;;;;;-2.51;100.00;102605.81;5070093;28;20040;-86
2022/02/12 04:35:13;;;;;;;10.73;3.35;;;;;;;-2.53;100.00;102599.69;5066364;28;20045;-86
2022/02/12 04:37:41;;;;;;;5.00;2.70;;;;;;;-2.53;100.00;102602.25;5057335;28;20085;-87
2022/02/12 04:40:08;;;;;;;10.02;3.50;;;;;;;-2.52;100.00;102602.34;5046194;28;20059;-84
2022/02/12 04:42:35;;;;;;;7.53;2.97;;;;;;;-2.52;100.00;102592.09;5051764;28;20044;-84
2022/02/12 04:45:02;;;;;;;10.05;3.08;;;;;;;-2.53;100.00;102591.97;5065682;28;20066;-83
2022/02/12 04:47:29;;;;;;;10.80;4.30;;;;;;;-2.53;100.00;102589.41;5067871;28;20102;-86
2022/02/12 04:49:56;;;;;;;14.80;4.00;;;;;;;-2.55;100.00;102591.00;5052697;28;20051;-86
2022/02/12 04:52:22;;;;;;;10.18;4.25;;;;;;;-2.55;100.00;102597.00;5069115;28;20150;-83
2022/02/12 04:54:49;;;;;;;11.93;3.35;;;;;;;-2.58;100.00;102595.88;5071105;28;20642;-83
2022/02/12 04:57:16;;;;;;;10.50;3.38;;;;;;;-2.60;100.00;102597.44;5075990;28;20040;-86
2022/02/12 04:59:43;;;;;;;15.52;2.92;;;;;;;-2.63;100.00;102587.84;5043445;28;20158;-86
2022/02/12 05:02:10;;;;;;;7.05;3.03;;;;;;;-2.64;100.00;102587.72;5055642;28;20054;-84
2022/02/12 05:04:36;;;;;;;9.95;3.28;;;;;;;-2.65;100.00;102581.69;5069960;28;20517;-85
2022/02/12 05:07:03;;;;;;;6.13;2.88;;;;;;;-2.66;100.00;102580.81;5066953;28;20036;-87
2022/02/12 05:09:34;;;;;;;7.43;3.65;;;;;;;-2.69;100.00;102583.13;5054599;28;20075;-84
2022/02/12 05:12:02;;;;;;;12.02;3.33;;;;;;;-2.70;100.00;102583.00;5043428;28;20167;-87
2022/02/12 05:14:31;;;;;;;11.23;3.30;;;;;;;-2.73;100.00;102575.09;5052074;28;20059;-86
2022/02/12 05:16:59;;;;;;;10.90;3.03;;;;;;;-2.75;100.00;102576.63;5057773;28;20058;-86
2022/02/12 05:19:26;;;;;;;8.15;3.75;;;;;;;-2.78;100.00;102573.84;5044263;28;20052;-83
2022/02/12 05:21:53;;;;;;;7.18;2.75;;;;;;;-2.77;100.00;102575.66;5072592;28;20135;-86
2022/02/12 05:24:20;;;;;;;9.70;3.08;;;;;;;-2.78;100.00;102572.16;5066237;28;20391;-82
2022/02/12 05:26:46;;;;;;;7.68;3.63;;;;;;;-2.78;100.00;102569.59;5057597;28;20044;-83
2022/02/12 05:29:13;;;;;;;11.50;3.47;;;;;;;-2.80;100.00;102575.38;5071118;28;20060;-86
2022/02/12 05:31:39;;;;;;;7.22;4.32;;;;;;;-2.81;100.00;102563.38;5052831;28;20052;-84
2022/02/12 05:34:06;;;;;;;9.18;3.08;;;;;;;-2.80;100.00;102568.63;5077097;28;20048;-83
2022/02/12 05:36:33;;;;;;;12.93;4.45;;;;;;;-2.80;100.00;102571.19;5075279;28;20051;-85
2022/02/12 05:38:59;;;;;;;6.60;3.40;;;;;;;-2.80;100.00;102568.63;5050197;28;20635;-82
2022/02/12 05:41:26;;;;;;;10.75;3.58;;;;;;;-2.83;100.00;102578.59;5060939;28;20047;-84
2022/02/12 05:43:52;;;;;;;9.82;3.70;;;;;;;-2.89;100.00;102583.28;5054851;28;20048;-86
2022/02/12 05:46:19;;;;;;;14.82;4.03;;;;;;;-2.89;100.00;102576.47;5052435;28;20135;-86
2022/02/12 05:48:46;;;;;;;12.23;3.45;;;;;;;-2.89;100.00;102563.66;5054481;28;20062;-85
2022/02/12 05:51:12;;;;;;;11.20;3.38;;;;;;;-2.92;100.00;102567.66;5058409;28;20062;-84
2022/02/12 05:53:40;;;;;;;12.48;3.47;;;;;;;-2.91;100.00;102570.34;5071594;28;20491;-86
2022/02/12 05:56:06;;;;;;;6.53;3.40;;;;;;;-2.89;100.00;102571.34;5064418;28;20048;-86
2022/02/12 05:58:33;;;;;;;11.27;3.80;;;;;;;-2.90;100.00;102576.38;5062968;28;20904;-84
2022/02/12 06:00:59;;;;;;;9.38;2.53;;;;;;;-2.92;100.00;102562.53;5044635;28;20056;-86
2022/02/12 06:03:26;;;;;;;8.05;4.63;;;;;;;-2.96;100.00;102561.41;5047730;28;20742;-84
2022/02/12 06:05:52;;;;;;;10.32;3.65;;;;;;;-2.97;100.00;102559.63;5069327;28;20078;-85
2022/02/12 06:08:19;;;;;;;6.55;4.20;;;;;;;-2.98;100.00;102560.41;5079495;28;20047;-85
2022/02/12 06:10:46;;;;;;;5.55;3.25;;;;;;;-2.96;100.00;102552.81;5060378;28;20408;-86
2022/02/12 06:13:12;;;;;;;9.25;3.50;;;;;;;-2.98;100.00;102552.72;5049724;28;20178;-83
2022/02/12 06:15:39;;;;;;;5.85;3.03;;;;;;;-2.98;100.00;102555.28;5060297;28;20102;-84
2022/02/12 06:18:06;;;;;;;13.30;3.30;;;;;;;-3.01;100.00;102542.25;5069962;28;21408;-84
2022/02/12 06:20:33;;;;;;;15.75;3.30;;;;;;;-3.02;100.00;102545.56;5071777;28;20527;-85
2022/02/12 06:23:01;;;;;;;10.25;3.03;;;;;;;-3.03;100.00;102544.66;5065831;28;20048;-86
2022/02/12 06:25:28;;;;;;;9.40;3.20;;;;;;;-3.03;100.00;102528.41;5051928;28;20056;-85
2022/02/12 06:27:54;;;;;;;8.60;3.15;;;;;;;-3.05;100.00;102533.41;5067920;28;20049;-84
2022/02/12 06:30:21;;;;;;;8.75;3.05;;;;;;;-3.04;100.00;102530.09;5067865;28;20055;-85
2022/02/12 06:32:47;;;;;;;10.18;3.47;;;;;;;-3.04;100.00;102529.19;5071003;28;20045;-83
2022/02/12 06:35:14;;;;;;;10.93;4.53;;;;;;;-3.01;100.00;102532.88;5063734;28;20077;-85
2022/02/12 06:37:40;;;;;;;13.57;3.33;;;;;;;-3.00;100.00;102534.66;5076397;28;20067;-85
2022/02/12 06:40:08;;;;;;;6.50;2.90;;;;;;;-2.96;100.00;102534.91;5063713;28;20051;-86
2022/02/12 06:42:34;;;;;;;17.48;4.40;;;;;;;-2.95;100.00;102536.69;5043261;28;20072;-86
2022/02/12 06:45:01;;;;;;;7.95;2.80;;;;;;;-2.95;100.00;102529.88;5063953;28;20052;-83
2022/02/12 06:47:27;;;;;;;8.18;3.20;;;;;;;-2.93;100.00;102535.13;5072008;28;20047;-87
2022/02/12 06:49:54;;;;;;;10.45;3.47;;;;;;;-2.92;100.00;102531.78;5074409;28;20056;-86
2022/02/12 06:52:20;;;;;;;12.45;4.15;;;;;;;-2.89;100.00;102530.34;5050827;28;20055;-84
2022/02/12 06:54:47;;;;;;;10.52;3.22;;;;;;;-2.88;100.00;102529.59;5048336;28;20048;-83
2022/02/12 06:57:13;;;;;;;14.25;4.80;;;;;;;-2.84;100.00;102531.59;5073921;28;20479;-86
2022/02/12 06:59:40;;;;;;;8.90;2.40;;;;;;;-2.81;100.00;102525.81;5053775;28;20178;-86
2022/02/12 07:02:06;;;;;;;10.32;3.15;;;;;;;-2.74;100.00;102527.16;5065256;28;20151;-84
2022/02/12 07:04:34;;;;;;;8.25;2.88;;;;;;;-2.71;100.00;102523.16;5067325;28;20052;-86
2022/02/12 07:07:01;;;;;;;4.70;3.50;;;;;;;-2.70;100.00;102524.97;5069813;28;20052;-83
2022/02/12 07:09:27;;;;;;;5.97;2.70;;;;;;;-2.68;100.00;102525.06;5072457;28;20100;-87
2022/02/12 07:11:55;;;;;;;7.80;2.90;;;;;;;-2.64;100.00;102521.94;5080578;28;20123;-84
2022/02/12 07:14:24;;;;;;;5.07;3.45;;;;;;;-2.61;100.00;102524.72;5075277;28;20536;-84
2022/02/12 07:16:51;;;;;;;9.20;3.40;;;;;;;-2.61;100.00;102518.72;5054564;28;20495;-83
2022/02/12 07:19:19;;;;;;;5.53;2.75;;;;;;;-2.58;100.00;102530.13;5070915;28;20124;-84
2022/02/12 07:21:45;;;;;;;12.18;2.92;;;;;;;-2.55;100.00;102525.19;5050674;28;20052;-83
2022/02/12 07:24:15;;;;;;;7.72;2.67;;;;;;;-2.51;100.00;102528.91;5056606;28;20043;-86
2022/02/12 07:26:42;;;;;;;6.03;2.70;;;;;;;-2.45;100.00;102529.34;5051651;28;20061;-86
2022/02/12 07:29:08;;;;;;;24.70;8.80;;;;;;;-2.39;100.00;102529.78;5057641;28;20054;-84
2022/02/12 07:31:35;;;;;;;6.45;3.53;;;;;;;-2.35;100.00;102529.25;5071787;28;20047;-85
2022/02/12 07:34:01;;;;;;;12.00;2.83;;;;;;;-2.29;100.00;102533.03;5050841;28;20077;-85
2022/02/12 07:36:28;;;;;;;7.60;2.60;;;;;;;-2.25;100.00;102529.94;5073581;28;20509;-85
2022/02/12 07:38:54;;;;;;;5.90;2.33;;;;;;;-2.18;100.00;102524.47;5057243;28;20056;-85
2022/02/12 07:41:22;;;;;;;6.50;2.55;;;;;;;-2.11;100.00;102523.22;5069708;28;20044;-86
2022/02/12 07:43:49;;;;;;;9.13;2.53;;;;;;;-2.06;100.00;102525.38;5051371;28;20048;-86
2022/02/12 07:46:15;;;;;;;4.45;2.65;;;;;;;-1.97;100.00;102537.06;5062849;28;20087;-86
2022/02/12 07:48:43;;;;;;;7.10;3.80;;;;;;;-1.93;100.00;102529.72;5067341;28;20128;-85
2022/02/12 07:51:14;;;;;;;7.13;3.60;;;;;;;-1.86;100.00;102531.06;5061560;28;20050;-86
2022/02/12 07:53:43;;;;;;;4.80;2.45;;;;;;;-1.81;100.00;102527.13;5059400;28;20044;-85
2022/02/12 07:56:09;;;;;;;13.25;3.92;;;;;;;-1.76;100.00;102525.78;5085033;27;20052;-85
2022/02/12 07:58:37;;;;;;;9.10;3.30;;;;;;;-1.69;100.00;102514.28;5063955;28;20072;-86
2022/02/12 08:01:05;;;;;;;9.23;3.25;;;;;;;-1.61;100.00;102513.13;5062155;28;20058;-86
2022/02/12 08:03:34;;;;;;;8.52;3.10;;;;;;;-1.58;100.00;102508.22;5054533;28;20495;-84
2022/02/12 08:06:01;;;;;;;13.77;3.90;;;;;;;-1.47;100.00;102508.97;5062153;28;20050;-86
2022/02/12 08:08:28;;;;;;;13.45;2.75;;;;;;;-1.42;100.00;102514.44;5069444;28;20035;-85
2022/02/12 08:13:40;;;;;;;10.10;3.33;;;;;;;-1.32;100.00;102519.44;5069407;28;20102;-84
2022/02/12 08:16:07;;;;;;;8.25;3.13;;;;;;;-1.23;100.00;102517.50;5058484;28;20052;-85
2022/02/12 08:18:34;;;;;;;7.47;2.72;;;;;;;-1.13;100.00;102513.91;5069478;28;20045;-85
2022/02/12 08:21:00;;;;;;;3.83;2.10;;;;;;;-1.05;100.00;102510.16;5055256;28;20388;-86
2022/02/12 08:23:27;;;;;;;4.38;2.45;;;;;;;-0.99;100.00;102514.84;5056773;28;20135;-86
2022/02/12 08:25:53;;;;;;;13.50;4.78;;;;;;;-0.91;100.00;102520.47;5074480;28;20054;-86
2022/02/12 08:28:20;;;;;;;6.28;2.92;;;;;;;-0.88;100.00;102516.44;5074024;28;20426;-86
2022/02/12 08:30:47;;;;;;;10.65;2.97;;;;;;;-0.82;100.00;102521.13;5034028;28;20045;-86
2022/02/12 08:33:13;;;;;;;9.77;2.65;;;;;;;-0.79;100.00;102508.47;5074073;28;22753;-86
2022/02/12 08:35:41;;;;;;;5.15;2.25;;;;;;;-0.73;100.00;102503.75;5057369;28;20048;-86
2022/02/12 08:38:08;;;;;;;5.68;2.40;;;;;;;-0.63;100.00;102509.50;5061206;28;20051;-85
2022/02/12 08:40:37;;;;;;;5.30;2.05;;;;;;;-0.51;100.00;102505.16;5067965;28;20071;-86
2022/02/12 08:43:04;;;;;;;7.25;2.03;;;;;;;-0.42;100.00;102503.19;5053707;28;20044;-88
2022/02/12 08:45:31;;;;;;;6.60;2.28;;;;;;;-0.34;98.21;102509.75;5044442;28;21196;-85
2022/02/12 08:47:58;;;;;;;7.38;2.15;;;;;;;-0.22;96.97;102507.09;5047006;28;20055;-85
2022/02/12 08:50:24;;;;;;;7.47;1.88;;;;;;;-0.12;95.56;102505.97;5058400;28;20069;-86
2022/02/12 08:52:51;;;;;;;8.98;2.88;;;;;;;-0.05;95.45;102507.28;5052496;28;20054;-86
2022/02/12 08:55:18;;;;;;;9.48;2.40;;;;;;;0.03;95.10;102498.38;5049486;28;20047;-84
2022/02/12 08:57:44;;;;;;;6.22;2.25;;;;;;;0.13;93.60;102505.88;5050753;28;20133;-84
2022/02/12 09:00:13;;;;;;;4.05;1.92;;;;;;;0.22;92.81;102504.69;5072705;28;21334;-84
2022/02/12 09:02:40;;;;;;;5.18;2.78;;;;;;;0.32;91.80;102510.50;5051506;28;20158;-84
2022/02/12 09:05:06;;;;;;;9.70;2.25;;;;;;;0.44;90.26;102506.91;5066379;28;21188;-84
2022/02/12 09:07:36;;;;;;;7.15;1.92;;;;;;;0.54;87.78;102504.13;5059206;28;20478;-86
2022/02/12 09:10:02;;;;;;;7.40;2.80;;;;;;;0.67;85.88;102503.19;5048507;28;20506;-87
2022/02/12 09:12:30;;;;;;;4.43;1.75;;;;;;;0.80;85.34;102499.69;5047172;28;20063;-85
2022/02/12 09:14:56;;;;;;;8.07;1.90;;;;;;;0.91;84.03;102493.50;5062685;28;20044;-86
2022/02/12 09:17:23;;;;;;;8.77;2.00;;;;;;;1.03;84.22;102484.69;5052213;28;20052;-86
2022/02/12 09:19:50;;;;;;;5.85;1.60;;;;;;;1.13;82.05;102487.94;5075442;28;20148;-85
2022/02/12 09:22:17;;;;;;;6.85;2.08;;;;;;;1.24;81.43;102482.47;5049082;28;20044;-85
2022/02/12 09:24:43;;;;;;;10.23;2.33;;;;;;;1.32;81.95;102486.41;5048378;28;20044;-84
2022/02/12 09:27:10;;;;;;;4.32;1.90;;;;;;;1.41;79.39;102481.78;5072214;28;20071;-85
2022/02/12 09:29:37;;;;;;;5.30;2.15;;;;;;;1.52;79.51;102482.41;5045547;28;20623;-85
2022/02/12 09:32:04;;;;;;;4.68;2.40;;;;;;;1.60;76.90;102481.19;5053019;28;20100;-85
2022/02/12 09:34:30;;;;;;;4.10;1.23;;;;;;;1.72;76.11;102473.22;5042298;28;20111;-87
2022/02/12 09:36:57;;;;;;;12.93;2.05;;;;;;;1.83;76.90;102465.22;5061696;28;21066;-86
2022/02/12 09:39:23;;;;;;;5.47;1.70;;;;;;;1.93;75.58;102468.38;5052554;28;20052;-84
2022/02/12 09:41:50;;;;;;;9.63;1.95;;;;;;;2.04;73.56;102466.38;5042009;28;20056;-84
2022/02/12 09:44:16;;;;;;;5.07;1.90;;;;;;;2.13;75.03;102464.31;5066411;28;20113;-85
2022/02/12 09:47:09;;;;;;;8.77;2.97;;;;;;;2.29;73.17;102450.53;5054622;28;20163;-84
2022/02/12 09:49:36;;;;;;;6.55;1.08;;;;;;;2.35;71.92;102447.38;5049238;28;20849;-87
2022/02/12 09:52:03;;;;;;;8.95;1.75;;;;;;;2.46;71.67;102447.94;5055774;28;20113;-85
2022/02/12 09:54:31;;;;;;;5.00;1.55;;;;;;;2.59;70.92;102447.78;5060389;28;20048;-86
2022/02/12 09:56:59;;;;;;;8.52;1.38;;;;;;;2.69;71.67;102444.00;5063348;28;20048;-84
2022/02/12 09:59:25;;;;;;;6.53;1.13;;;;;;;2.83;72.64;102442.13;5065102;28;20734;-87
2022/02/12 10:01:52;;;;;;;6.35;1.95;;;;;;;2.96;70.24;102426.44;5068647;28;20040;-88
2022/02/12 10:04:19;;;;;;;4.93;1.05;;;;;;;3.12;71.72;102432.38;5080162;28;20493;-85
2022/02/12 10:06:47;;;;;;;4.07;1.42;;;;;;;3.22;68.72;102426.88;5073461;28;20238;-85
2022/02/12 10:09:14;;;;;;;4.40;1.73;;;;;;;3.30;69.62;102428.13;5061365;28;20503;-86
2022/02/12 10:11:50;;;;;;;5.25;1.30;;;;;;;3.36;69.58;102435.28;5054366;28;20077;-86
2022/02/12 10:14:25;;;;;;;5.07;0.95;;;;;;;3.34;67.30;102434.34;5064232;28;20037;-86
2022/02/12 10:17:00;;;;;;;4.63;3.05;;;;;;;3.40;69.32;102410.44;5055750;28;20132;-87
2022/02/12 10:19:36;;;;;;;7.53;1.63;;;;;;;3.44;68.35;102412.38;5064779;28;20056;-85
2022/02/12 10:22:15;;;;;;;7.65;1.35;;;;;;;3.48;68.49;102406.53;5043312;28;20052;-87
2022/02/12 10:24:55;;;;;;;14.88;1.88;;;;;;;3.57;68.75;102406.09;5054707;28;20046;-87
2022/02/12 10:27:25;;;;;;;4.63;1.65;;;;;;;3.66;67.27;102405.66;5066498;28;20064;-86
2022/02/12 10:29:54;;;;;;;9.00;1.58;;;;;;;3.66;65.75;102398.75;5057852;28;20059;-87
2022/02/12 10:32:24;;;;;;;7.45;2.20;;;;;;;3.69;67.17;102392.81;5058840;28;20055;-84
2022/02/12 10:34:52;;;;;;;14.93;3.10;;;;;;;3.71;66.43;102391.22;5052116;28;20048;-85
2022/02/12 10:37:22;;;;;;;3.13;1.80;;;;;;;3.73;67.44;102398.25;5064914;28;20067;-87
2022/02/12 10:40:03;;;;;;;8.27;1.50;;;;;;;3.77;67.90;102389.78;5054604;28;20040;-86
2022/02/12 10:42:33;;;;;;;7.18;1.38;;;;;;;3.76;67.80;102388.00;5058077;28;20060;-86
2022/02/12 10:45:00;;;;;;;3.72;1.42;;;;;;;3.80;67.34;102383.88;5054010;28;20048;-83
2022/02/12 10:47:27;;;;;;;8.80;2.30;;;;;;;3.83;68.71;102388.31;5071466;28;20129;-85
2022/02/12 10:49:54;;;;;;;13.48;3.03;;;;;;;3.83;67.80;102378.81;5062319;28;20063;-85
2022/02/12 10:52:22;;;;;;;4.10;1.65;;;;;;;3.89;68.97;102381.72;5047127;28;20049;-83
2022/02/12 10:54:51;;;;;;;4.43;1.50;;;;;;;3.97;69.01;102377.75;5060631;28;20419;-84
2022/02/12 10:57:28;;;;;;;6.47;2.67;;;;;;;4.01;69.21;102373.59;5057848;28;20048;-84
2022/02/12 10:59:57;;;;;;;4.40;1.80;;;;;;;4.05;69.11;102361.69;5065706;28;20051;-86
2022/02/12 11:02:25;;;;;;;7.55;2.42;;;;;;;4.07;69.22;102353.16;5079278;28;20052;-84
2022/02/12 11:04:54;;;;;;;7.30;1.80;;;;;;;4.13;68.99;102347.34;5063164;28;20044;-84
2022/02/12 11:07:21;;;;;;;4.93;1.52;;;;;;;4.14;69.00;102343.94;5056942;28;20493;-85
2022/02/12 11:09:48;;;;;;;7.28;2.22;;;;;;;4.17;68.71;102340.59;5078202;28;20052;-85
2022/02/12 11:12:17;;;;;;;5.00;2.42;;;;;;;4.21;69.04;102334.75;5073063;28;20138;-85
2022/02/12 11:14:47;;;;;;;5.13;1.67;;;;;;;4.29;68.94;102336.84;5051092;28;20055;-85
2022/02/12 11:17:22;;;;;;;7.28;2.08;;;;;;;4.41;68.37;102335.63;5058197;28;20041;-86
2022/02/12 11:19:52;;;;;;;6.35;2.47;;;;;;;4.52;68.57;102334.38;5067770;28;20059;-85
2022/02/12 11:22:19;;;;;;;5.63;2.45;;;;;;;4.63;68.05;102325.34;5074816;28;20584;-85
2022/02/12 11:24:48;;;;;;;8.00;1.63;;;;;;;4.74;66.29;102323.19;5062626;28;20048;-87
2022/02/12 11:27:21;;;;;;;7.35;2.03;;;;;;;4.78;64.87;102319.03;5072372;28;20050;-84
2022/02/12 11:29:52;;;;;;;9.50;2.20;;;;;;;4.84;65.59;102310.59;5058782;28;20072;-86